sensor_id;sensor_type;location;lat;lon;timestamp;P1;durP1;ratioP1;P2;durP2;ratioP2
19535;SDS011;9913;51.168;4.124;2023-02-15T00:00:15;70.93;;;38.33;;
19535;SDS011;9913;51.168;4.124;2023-02-15T00:02:44;83.77;;;40.00;;
19535;SDS011;9913;51.168;4.124;2023-02-15T00:05:12;79.37;;;40.20;;
19535;SDS011;9913;51.168;4.124;2023-02-15T00:07:40;75.03;;;39.13;;
19535;SDS011;9913;51.168;4.124;2023-02-15T00:10:09;78.90;;;41.27;;
19535;SDS011;9913;51.168;4.124;2023-02-15T00:12:38;78.83;;;40.47;;
19535;SDS011;9913;51.168;4.124;2023-02-15T00:15:08;73.13;;;38.97;;
19535;SDS011;9913;51.168;4.124;2023-02-15T00:17:37;76.43;;;40.03;;
19535;SDS011;9913;51.168;4.124;2023-02-15T00:20:06;72.60;;;37.53;;
19535;SDS011;9913;51.168;4.124;2023-02-15T00:22:35;67.93;;;38.43;;
19535;SDS011;9913;51.168;4.124;2023-02-15T00:25:03;73.63;;;37.60;;
19535;SDS011;9913;51.168;4.124;2023-02-15T00:27:32;81.23;;;39.73;;
19535;SDS011;9913;51.168;4.124;2023-02-15T00:30:02;70.13;;;36.50;;
19535;SDS011;9913;51.168;4.124;2023-02-15T00:32:32;76.87;;;38.17;;
19535;SDS011;9913;51.168;4.124;2023-02-15T00:35:01;78.67;;;38.23;;
19535;SDS011;9913;51.168;4.124;2023-02-15T00:37:29;77.27;;;37.60;;
19535;SDS011;9913;51.168;4.124;2023-02-15T00:39:57;76.37;;;37.73;;
19535;SDS011;9913;51.168;4.124;2023-02-15T00:42:26;72.03;;;37.17;;
19535;SDS011;9913;51.168;4.124;2023-02-15T00:44:54;64.37;;;36.47;;
19535;SDS011;9913;51.168;4.124;2023-02-15T00:47:22;73.33;;;39.40;;
19535;SDS011;9913;51.168;4.124;2023-02-15T00:49:53;81.90;;;38.20;;
19535;SDS011;9913;51.168;4.124;2023-02-15T00:52:21;72.97;;;39.70;;
19535;SDS011;9913;51.168;4.124;2023-02-15T00:54:49;79.90;;;39.27;;
19535;SDS011;9913;51.168;4.124;2023-02-15T00:57:18;72.63;;;39.43;;
19535;SDS011;9913;51.168;4.124;2023-02-15T00:59:46;74.50;;;39.17;;
19535;SDS011;9913;51.168;4.124;2023-02-15T01:02:15;80.23;;;39.27;;
19535;SDS011;9913;51.168;4.124;2023-02-15T01:04:45;79.70;;;39.77;;
19535;SDS011;9913;51.168;4.124;2023-02-15T01:07:16;88.53;;;39.67;;
19535;SDS011;9913;51.168;4.124;2023-02-15T01:09:44;81.53;;;38.63;;
19535;SDS011;9913;51.168;4.124;2023-02-15T01:12:13;73.90;;;38.90;;
19535;SDS011;9913;51.168;4.124;2023-02-15T01:14:41;74.30;;;39.87;;
19535;SDS011;9913;51.168;4.124;2023-02-15T01:17:09;73.57;;;40.13;;
19535;SDS011;9913;51.168;4.124;2023-02-15T01:19:38;72.07;;;37.80;;
19535;SDS011;9913;51.168;4.124;2023-02-15T01:22:06;71.80;;;38.23;;
19535;SDS011;9913;51.168;4.124;2023-02-15T01:24:36;73.90;;;39.40;;
19535;SDS011;9913;51.168;4.124;2023-02-15T01:27:04;74.80;;;39.13;;
19535;SDS011;9913;51.168;4.124;2023-02-15T01:29:32;74.70;;;39.90;;
19535;SDS011;9913;51.168;4.124;2023-02-15T01:32:01;75.77;;;38.40;;
19535;SDS011;9913;51.168;4.124;2023-02-15T01:34:29;77.50;;;40.77;;
19535;SDS011;9913;51.168;4.124;2023-02-15T01:36:58;81.90;;;40.57;;
19535;SDS011;9913;51.168;4.124;2023-02-15T01:39:26;76.17;;;38.67;;
19535;SDS011;9913;51.168;4.124;2023-02-15T01:41:57;71.83;;;39.17;;
19535;SDS011;9913;51.168;4.124;2023-02-15T01:44:45;82.17;;;40.13;;
19535;SDS011;9913;51.168;4.124;2023-02-15T01:47:16;77.27;;;37.67;;
19535;SDS011;9913;51.168;4.124;2023-02-15T01:49:48;77.07;;;38.60;;
19535;SDS011;9913;51.168;4.124;2023-02-15T01:52:19;75.63;;;38.70;;
19535;SDS011;9913;51.168;4.124;2023-02-15T01:54:49;78.93;;;39.83;;
19535;SDS011;9913;51.168;4.124;2023-02-15T01:57:20;70.97;;;37.87;;
19535;SDS011;9913;51.168;4.124;2023-02-15T01:59:53;72.53;;;37.23;;
19535;SDS011;9913;51.168;4.124;2023-02-15T02:02:25;69.40;;;36.30;;
19535;SDS011;9913;51.168;4.124;2023-02-15T02:04:56;72.23;;;38.30;;
19535;SDS011;9913;51.168;4.124;2023-02-15T02:07:30;78.93;;;37.90;;
19535;SDS011;9913;51.168;4.124;2023-02-15T02:10:02;76.17;;;37.30;;
19535;SDS011;9913;51.168;4.124;2023-02-15T02:12:33;68.77;;;37.47;;
19535;SDS011;9913;51.168;4.124;2023-02-15T02:15:03;75.63;;;38.43;;
19535;SDS011;9913;51.168;4.124;2023-02-15T02:17:34;77.87;;;38.83;;
19535;SDS011;9913;51.168;4.124;2023-02-15T02:20:17;75.03;;;37.00;;
19535;SDS011;9913;51.168;4.124;2023-02-15T02:23:05;76.50;;;38.07;;
19535;SDS011;9913;51.168;4.124;2023-02-15T02:25:48;74.27;;;38.43;;
19535;SDS011;9913;51.168;4.124;2023-02-15T02:28:44;72.93;;;36.23;;
19535;SDS011;9913;51.168;4.124;2023-02-15T02:31:31;72.03;;;37.47;;
19535;SDS011;9913;51.168;4.124;2023-02-15T02:34:13;66.57;;;35.40;;
19535;SDS011;9913;51.168;4.124;2023-02-15T02:36:46;70.57;;;35.20;;
19535;SDS011;9913;51.168;4.124;2023-02-15T02:39:25;76.07;;;37.97;;
19535;SDS011;9913;51.168;4.124;2023-02-15T02:42:00;69.53;;;37.60;;
19535;SDS011;9913;51.168;4.124;2023-02-15T02:44:38;72.40;;;36.57;;
19535;SDS011;9913;51.168;4.124;2023-02-15T02:47:11;71.37;;;36.40;;
19535;SDS011;9913;51.168;4.124;2023-02-15T02:49:45;66.07;;;35.33;;
19535;SDS011;9913;51.168;4.124;2023-02-15T02:55:16;82.47;;;36.33;;
19535;SDS011;9913;51.168;4.124;2023-02-15T02:57:51;80.97;;;36.73;;
19535;SDS011;9913;51.168;4.124;2023-02-15T03:00:22;69.23;;;36.73;;
19535;SDS011;9913;51.168;4.124;2023-02-15T03:02:56;66.43;;;35.57;;
19535;SDS011;9913;51.168;4.124;2023-02-15T03:05:33;65.77;;;34.73;;
19535;SDS011;9913;51.168;4.124;2023-02-15T03:08:05;63.07;;;35.03;;
19535;SDS011;9913;51.168;4.124;2023-02-15T03:10:36;66.80;;;35.53;;
19535;SDS011;9913;51.168;4.124;2023-02-15T03:13:07;77.30;;;34.60;;
19535;SDS011;9913;51.168;4.124;2023-02-15T03:15:36;67.47;;;34.33;;
19535;SDS011;9913;51.168;4.124;2023-02-15T03:18:25;60.70;;;33.03;;
19535;SDS011;9913;51.168;4.124;2023-02-15T03:20:59;67.23;;;34.93;;
19535;SDS011;9913;51.168;4.124;2023-02-15T03:23:30;70.60;;;35.93;;
19535;SDS011;9913;51.168;4.124;2023-02-15T03:26:01;69.53;;;37.63;;
19535;SDS011;9913;51.168;4.124;2023-02-15T03:28:35;72.20;;;36.70;;
19535;SDS011;9913;51.168;4.124;2023-02-15T03:31:08;73.53;;;37.77;;
19535;SDS011;9913;51.168;4.124;2023-02-15T03:33:40;76.43;;;38.93;;
19535;SDS011;9913;51.168;4.124;2023-02-15T03:36:15;83.17;;;40.17;;
19535;SDS011;9913;51.168;4.124;2023-02-15T03:38:51;74.33;;;39.03;;
19535;SDS011;9913;51.168;4.124;2023-02-15T03:41:26;72.03;;;35.70;;
19535;SDS011;9913;51.168;4.124;2023-02-15T03:44:00;75.60;;;37.77;;
19535;SDS011;9913;51.168;4.124;2023-02-15T03:46:35;73.03;;;36.93;;
19535;SDS011;9913;51.168;4.124;2023-02-15T03:49:10;69.43;;;36.13;;
19535;SDS011;9913;51.168;4.124;2023-02-15T03:51:45;73.47;;;39.00;;
19535;SDS011;9913;51.168;4.124;2023-02-15T03:54:18;67.17;;;34.20;;
19535;SDS011;9913;51.168;4.124;2023-02-15T03:57:02;64.07;;;35.20;;
19535;SDS011;9913;51.168;4.124;2023-02-15T03:59:49;70.23;;;35.23;;
19535;SDS011;9913;51.168;4.124;2023-02-15T04:02:38;66.50;;;34.53;;
19535;SDS011;9913;51.168;4.124;2023-02-15T04:05:14;65.20;;;34.30;;
19535;SDS011;9913;51.168;4.124;2023-02-15T04:07:44;67.67;;;35.17;;
19535;SDS011;9913;51.168;4.124;2023-02-15T04:10:12;69.90;;;35.43;;
19535;SDS011;9913;51.168;4.124;2023-02-15T04:12:58;66.07;;;34.87;;
19535;SDS011;9913;51.168;4.124;2023-02-15T04:15:26;68.13;;;37.03;;
19535;SDS011;9913;51.168;4.124;2023-02-15T04:18:13;79.23;;;37.70;;
19535;SDS011;9913;51.168;4.124;2023-02-15T04:20:43;67.80;;;36.30;;
19535;SDS011;9913;51.168;4.124;2023-02-15T04:23:30;68.80;;;36.07;;
19535;SDS011;9913;51.168;4.124;2023-02-15T04:26:16;73.20;;;37.70;;
19535;SDS011;9913;51.168;4.124;2023-02-15T04:28:44;69.20;;;35.17;;
19535;SDS011;9913;51.168;4.124;2023-02-15T04:31:13;68.13;;;36.63;;
19535;SDS011;9913;51.168;4.124;2023-02-15T04:33:41;72.77;;;36.57;;
19535;SDS011;9913;51.168;4.124;2023-02-15T04:36:10;68.87;;;35.20;;
19535;SDS011;9913;51.168;4.124;2023-02-15T04:38:39;78.13;;;38.07;;
19535;SDS011;9913;51.168;4.124;2023-02-15T04:41:08;72.27;;;37.50;;
19535;SDS011;9913;51.168;4.124;2023-02-15T04:43:37;77.07;;;39.20;;
19535;SDS011;9913;51.168;4.124;2023-02-15T04:46:06;75.30;;;40.30;;
19535;SDS011;9913;51.168;4.124;2023-02-15T04:48:35;81.63;;;40.27;;
19535;SDS011;9913;51.168;4.124;2023-02-15T04:51:04;74.17;;;38.97;;
19535;SDS011;9913;51.168;4.124;2023-02-15T04:53:34;75.73;;;37.03;;
19535;SDS011;9913;51.168;4.124;2023-02-15T04:56:03;77.27;;;36.57;;
19535;SDS011;9913;51.168;4.124;2023-02-15T04:58:32;84.73;;;39.87;;
19535;SDS011;9913;51.168;4.124;2023-02-15T05:01:01;81.97;;;38.43;;
19535;SDS011;9913;51.168;4.124;2023-02-15T05:03:30;72.50;;;37.97;;
19535;SDS011;9913;51.168;4.124;2023-02-15T05:05:58;75.43;;;38.40;;
19535;SDS011;9913;51.168;4.124;2023-02-15T05:08:27;74.23;;;37.90;;
19535;SDS011;9913;51.168;4.124;2023-02-15T05:10:55;78.93;;;39.57;;
19535;SDS011;9913;51.168;4.124;2023-02-15T05:13:25;77.43;;;37.53;;
19535;SDS011;9913;51.168;4.124;2023-02-15T05:15:53;73.63;;;37.43;;
19535;SDS011;9913;51.168;4.124;2023-02-15T05:18:21;83.80;;;38.27;;
19535;SDS011;9913;51.168;4.124;2023-02-15T05:20:50;79.03;;;38.93;;
19535;SDS011;9913;51.168;4.124;2023-02-15T05:23:18;70.93;;;36.67;;
19535;SDS011;9913;51.168;4.124;2023-02-15T05:25:47;74.80;;;36.13;;
19535;SDS011;9913;51.168;4.124;2023-02-15T05:28:40;68.50;;;35.00;;
19535;SDS011;9913;51.168;4.124;2023-02-15T05:31:09;71.70;;;34.40;;
19535;SDS011;9913;51.168;4.124;2023-02-15T05:33:40;56.97;;;33.13;;
19535;SDS011;9913;51.168;4.124;2023-02-15T05:36:09;72.30;;;36.73;;
19535;SDS011;9913;51.168;4.124;2023-02-15T05:38:37;70.50;;;35.43;;
19535;SDS011;9913;51.168;4.124;2023-02-15T05:41:06;70.93;;;36.10;;
19535;SDS011;9913;51.168;4.124;2023-02-15T05:43:36;66.40;;;35.47;;
19535;SDS011;9913;51.168;4.124;2023-02-15T05:46:07;74.00;;;36.90;;
19535;SDS011;9913;51.168;4.124;2023-02-15T05:48:36;71.43;;;33.70;;
19535;SDS011;9913;51.168;4.124;2023-02-15T05:51:05;66.27;;;34.70;;
19535;SDS011;9913;51.168;4.124;2023-02-15T05:53:36;74.37;;;35.93;;
19535;SDS011;9913;51.168;4.124;2023-02-15T05:56:06;74.77;;;35.13;;
19535;SDS011;9913;51.168;4.124;2023-02-15T05:58:37;73.60;;;35.93;;
19535;SDS011;9913;51.168;4.124;2023-02-15T06:01:11;72.23;;;34.57;;
19535;SDS011;9913;51.168;4.124;2023-02-15T06:03:41;70.10;;;34.00;;
19535;SDS011;9913;51.168;4.124;2023-02-15T06:06:09;70.57;;;35.03;;
19535;SDS011;9913;51.168;4.124;2023-02-15T06:08:38;78.57;;;37.57;;
19535;SDS011;9913;51.168;4.124;2023-02-15T06:11:06;80.33;;;39.67;;
19535;SDS011;9913;51.168;4.124;2023-02-15T06:13:35;79.00;;;37.97;;
19535;SDS011;9913;51.168;4.124;2023-02-15T06:16:04;88.33;;;40.20;;
19535;SDS011;9913;51.168;4.124;2023-02-15T06:18:34;86.13;;;40.10;;
19535;SDS011;9913;51.168;4.124;2023-02-15T06:21:03;90.23;;;40.13;;
19535;SDS011;9913;51.168;4.124;2023-02-15T06:23:31;87.20;;;40.10;;
19535;SDS011;9913;51.168;4.124;2023-02-15T06:25:59;82.77;;;41.03;;
19535;SDS011;9913;51.168;4.124;2023-02-15T06:28:28;82.57;;;38.93;;
19535;SDS011;9913;51.168;4.124;2023-02-15T06:30:56;83.47;;;39.20;;
19535;SDS011;9913;51.168;4.124;2023-02-15T06:33:24;83.40;;;39.00;;
19535;SDS011;9913;51.168;4.124;2023-02-15T06:35:54;87.83;;;42.30;;
19535;SDS011;9913;51.168;4.124;2023-02-15T06:38:23;72.70;;;38.53;;
19535;SDS011;9913;51.168;4.124;2023-02-15T06:40:51;71.60;;;36.47;;
19535;SDS011;9913;51.168;4.124;2023-02-15T06:43:19;79.43;;;36.60;;
19535;SDS011;9913;51.168;4.124;2023-02-15T06:45:47;82.00;;;38.40;;
19535;SDS011;9913;51.168;4.124;2023-02-15T06:48:16;79.10;;;36.77;;
19535;SDS011;9913;51.168;4.124;2023-02-15T06:50:44;78.57;;;37.90;;
19535;SDS011;9913;51.168;4.124;2023-02-15T06:53:14;82.03;;;39.60;;
19535;SDS011;9913;51.168;4.124;2023-02-15T06:55:42;83.13;;;39.03;;
19535;SDS011;9913;51.168;4.124;2023-02-15T06:58:10;73.80;;;37.10;;
19535;SDS011;9913;51.168;4.124;2023-02-15T07:00:38;75.27;;;37.27;;
19535;SDS011;9913;51.168;4.124;2023-02-15T07:03:07;76.27;;;37.17;;
19535;SDS011;9913;51.168;4.124;2023-02-15T07:05:36;73.83;;;36.30;;
19535;SDS011;9913;51.168;4.124;2023-02-15T07:08:04;71.63;;;36.53;;
19535;SDS011;9913;51.168;4.124;2023-02-15T07:10:33;77.07;;;36.17;;
19535;SDS011;9913;51.168;4.124;2023-02-15T07:13:02;83.83;;;39.07;;
19535;SDS011;9913;51.168;4.124;2023-02-15T07:15:29;74.83;;;36.47;;
19535;SDS011;9913;51.168;4.124;2023-02-15T07:17:57;71.77;;;36.10;;
19535;SDS011;9913;51.168;4.124;2023-02-15T07:20:26;65.00;;;34.67;;
19535;SDS011;9913;51.168;4.124;2023-02-15T07:22:55;71.63;;;35.40;;
19535;SDS011;9913;51.168;4.124;2023-02-15T07:25:23;69.83;;;35.73;;
19535;SDS011;9913;51.168;4.124;2023-02-15T07:27:56;76.40;;;35.63;;
19535;SDS011;9913;51.168;4.124;2023-02-15T07:30:25;80.13;;;37.10;;
19535;SDS011;9913;51.168;4.124;2023-02-15T07:32:54;65.87;;;35.43;;
19535;SDS011;9913;51.168;4.124;2023-02-15T07:35:45;75.87;;;36.10;;
19535;SDS011;9913;51.168;4.124;2023-02-15T07:38:15;69.20;;;36.03;;
19535;SDS011;9913;51.168;4.124;2023-02-15T07:40:43;67.37;;;36.03;;
19535;SDS011;9913;51.168;4.124;2023-02-15T07:43:14;79.17;;;37.60;;
19535;SDS011;9913;51.168;4.124;2023-02-15T07:45:42;77.20;;;37.77;;
19535;SDS011;9913;51.168;4.124;2023-02-15T07:48:11;82.23;;;36.83;;
19535;SDS011;9913;51.168;4.124;2023-02-15T07:50:39;78.77;;;35.90;;
19535;SDS011;9913;51.168;4.124;2023-02-15T07:53:07;80.57;;;36.17;;
19535;SDS011;9913;51.168;4.124;2023-02-15T07:55:36;76.13;;;36.37;;
19535;SDS011;9913;51.168;4.124;2023-02-15T07:58:04;76.33;;;36.47;;
19535;SDS011;9913;51.168;4.124;2023-02-15T08:00:34;72.67;;;36.70;;
19535;SDS011;9913;51.168;4.124;2023-02-15T08:03:22;80.83;;;37.40;;
19535;SDS011;9913;51.168;4.124;2023-02-15T08:05:55;81.13;;;37.17;;
19535;SDS011;9913;51.168;4.124;2023-02-15T08:08:25;69.13;;;36.33;;
19535;SDS011;9913;51.168;4.124;2023-02-15T08:11:00;72.33;;;36.53;;
19535;SDS011;9913;51.168;4.124;2023-02-15T08:13:47;73.33;;;36.00;;
19535;SDS011;9913;51.168;4.124;2023-02-15T08:16:24;64.97;;;35.07;;
19535;SDS011;9913;51.168;4.124;2023-02-15T08:18:54;68.67;;;34.70;;
19535;SDS011;9913;51.168;4.124;2023-02-15T08:21:25;66.00;;;34.17;;
19535;SDS011;9913;51.168;4.124;2023-02-15T08:23:55;69.40;;;34.47;;
19535;SDS011;9913;51.168;4.124;2023-02-15T08:26:23;62.37;;;31.37;;
19535;SDS011;9913;51.168;4.124;2023-02-15T08:28:53;63.03;;;32.03;;
19535;SDS011;9913;51.168;4.124;2023-02-15T08:31:21;60.90;;;31.80;;
19535;SDS011;9913;51.168;4.124;2023-02-15T08:33:52;61.90;;;32.70;;
19535;SDS011;9913;51.168;4.124;2023-02-15T08:36:22;62.53;;;31.80;;
19535;SDS011;9913;51.168;4.124;2023-02-15T08:38:52;61.83;;;32.07;;
19535;SDS011;9913;51.168;4.124;2023-02-15T08:41:21;62.60;;;30.93;;
19535;SDS011;9913;51.168;4.124;2023-02-15T08:43:51;56.97;;;30.87;;
19535;SDS011;9913;51.168;4.124;2023-02-15T08:46:21;68.70;;;31.83;;
19535;SDS011;9913;51.168;4.124;2023-02-15T08:48:51;56.43;;;31.17;;
19535;SDS011;9913;51.168;4.124;2023-02-15T08:51:21;62.00;;;32.33;;
19535;SDS011;9913;51.168;4.124;2023-02-15T08:53:51;60.87;;;31.63;;
19535;SDS011;9913;51.168;4.124;2023-02-15T08:56:22;56.37;;;30.83;;
19535;SDS011;9913;51.168;4.124;2023-02-15T08:58:52;59.67;;;31.67;;
19535;SDS011;9913;51.168;4.124;2023-02-15T09:01:22;59.47;;;31.27;;
19535;SDS011;9913;51.168;4.124;2023-02-15T09:03:58;57.90;;;30.30;;
19535;SDS011;9913;51.168;4.124;2023-02-15T09:06:27;60.47;;;30.63;;
19535;SDS011;9913;51.168;4.124;2023-02-15T09:08:56;59.10;;;31.43;;
19535;SDS011;9913;51.168;4.124;2023-02-15T09:11:25;61.57;;;31.77;;
19535;SDS011;9913;51.168;4.124;2023-02-15T09:13:56;55.30;;;29.73;;
19535;SDS011;9913;51.168;4.124;2023-02-15T09:16:26;53.90;;;30.40;;
19535;SDS011;9913;51.168;4.124;2023-02-15T09:18:55;60.93;;;30.97;;
19535;SDS011;9913;51.168;4.124;2023-02-15T09:21:28;58.00;;;30.13;;
19535;SDS011;9913;51.168;4.124;2023-02-15T09:23:57;53.90;;;28.53;;
19535;SDS011;9913;51.168;4.124;2023-02-15T09:26:27;54.07;;;29.20;;
19535;SDS011;9913;51.168;4.124;2023-02-15T09:28:58;55.23;;;28.47;;
19535;SDS011;9913;51.168;4.124;2023-02-15T09:31:28;55.57;;;28.63;;
19535;SDS011;9913;51.168;4.124;2023-02-15T09:33:59;52.40;;;26.43;;
19535;SDS011;9913;51.168;4.124;2023-02-15T09:36:30;50.80;;;27.10;;
19535;SDS011;9913;51.168;4.124;2023-02-15T09:39:00;50.60;;;27.83;;
19535;SDS011;9913;51.168;4.124;2023-02-15T09:41:44;52.30;;;27.43;;
19535;SDS011;9913;51.168;4.124;2023-02-15T09:44:33;47.60;;;26.13;;
19535;SDS011;9913;51.168;4.124;2023-02-15T09:47:25;45.63;;;25.40;;
19535;SDS011;9913;51.168;4.124;2023-02-15T09:50:15;49.37;;;25.60;;
19535;SDS011;9913;51.168;4.124;2023-02-15T09:52:57;44.80;;;26.10;;
19535;SDS011;9913;51.168;4.124;2023-02-15T09:55:41;51.17;;;25.53;;
19535;SDS011;9913;51.168;4.124;2023-02-15T09:58:21;48.67;;;26.27;;
19535;SDS011;9913;51.168;4.124;2023-02-15T10:00:58;43.43;;;25.67;;
19535;SDS011;9913;51.168;4.124;2023-02-15T10:03:34;49.20;;;25.90;;
19535;SDS011;9913;51.168;4.124;2023-02-15T10:06:27;48.40;;;26.87;;
19535;SDS011;9913;51.168;4.124;2023-02-15T10:09:15;47.90;;;26.03;;
19535;SDS011;9913;51.168;4.124;2023-02-15T10:11:56;48.90;;;27.00;;
19535;SDS011;9913;51.168;4.124;2023-02-15T10:14:41;49.50;;;26.60;;
19535;SDS011;9913;51.168;4.124;2023-02-15T10:17:21;45.87;;;26.27;;
19535;SDS011;9913;51.168;4.124;2023-02-15T10:20:00;44.47;;;26.17;;
19535;SDS011;9913;51.168;4.124;2023-02-15T10:22:50;50.97;;;26.87;;
19535;SDS011;9913;51.168;4.124;2023-02-15T10:25:32;53.73;;;28.47;;
19535;SDS011;9913;51.168;4.124;2023-02-15T10:28:18;57.67;;;27.77;;
19535;SDS011;9913;51.168;4.124;2023-02-15T10:30:48;47.67;;;25.73;;
19535;SDS011;9913;51.168;4.124;2023-02-15T10:33:24;48.27;;;26.13;;
19535;SDS011;9913;51.168;4.124;2023-02-15T10:36:03;49.10;;;25.90;;
19535;SDS011;9913;51.168;4.124;2023-02-15T10:38:46;49.73;;;25.90;;
19535;SDS011;9913;51.168;4.124;2023-02-15T10:41:24;49.60;;;25.03;;
19535;SDS011;9913;51.168;4.124;2023-02-15T10:44:11;46.27;;;25.07;;
19535;SDS011;9913;51.168;4.124;2023-02-15T10:49:55;44.33;;;24.60;;
19535;SDS011;9913;51.168;4.124;2023-02-15T10:52:43;41.57;;;23.90;;
19535;SDS011;9913;51.168;4.124;2023-02-15T10:55:27;43.93;;;24.50;;
19535;SDS011;9913;51.168;4.124;2023-02-15T10:58:10;46.07;;;23.90;;
19535;SDS011;9913;51.168;4.124;2023-02-15T11:00:45;43.87;;;25.33;;
19535;SDS011;9913;51.168;4.124;2023-02-15T11:03:24;44.03;;;24.07;;
19535;SDS011;9913;51.168;4.124;2023-02-15T11:06:12;44.13;;;24.23;;
19535;SDS011;9913;51.168;4.124;2023-02-15T11:08:43;49.17;;;25.70;;
19535;SDS011;9913;51.168;4.124;2023-02-15T11:11:20;41.83;;;24.77;;
19535;SDS011;9913;51.168;4.124;2023-02-15T11:13:54;43.47;;;22.90;;
19535;SDS011;9913;51.168;4.124;2023-02-15T11:16:28;43.47;;;24.13;;
19535;SDS011;9913;51.168;4.124;2023-02-15T11:19:01;41.03;;;23.17;;
19535;SDS011;9913;51.168;4.124;2023-02-15T11:21:34;39.83;;;23.50;;
19535;SDS011;9913;51.168;4.124;2023-02-15T11:24:09;38.10;;;23.37;;
19535;SDS011;9913;51.168;4.124;2023-02-15T11:26:43;40.63;;;22.53;;
19535;SDS011;9913;51.168;4.124;2023-02-15T11:29:15;42.07;;;24.10;;
19535;SDS011;9913;51.168;4.124;2023-02-15T11:31:53;40.63;;;22.20;;
19535;SDS011;9913;51.168;4.124;2023-02-15T11:34:24;42.00;;;23.37;;
19535;SDS011;9913;51.168;4.124;2023-02-15T11:37:05;40.77;;;23.17;;
19535;SDS011;9913;51.168;4.124;2023-02-15T11:39:36;42.47;;;23.20;;
19535;SDS011;9913;51.168;4.124;2023-02-15T11:42:09;42.10;;;23.63;;
19535;SDS011;9913;51.168;4.124;2023-02-15T11:44:44;42.40;;;23.97;;
19535;SDS011;9913;51.168;4.124;2023-02-15T11:47:20;34.97;;;22.47;;
19535;SDS011;9913;51.168;4.124;2023-02-15T11:49:48;37.30;;;21.23;;
19535;SDS011;9913;51.168;4.124;2023-02-15T11:52:17;39.10;;;23.17;;
19535;SDS011;9913;51.168;4.124;2023-02-15T11:54:46;39.03;;;21.73;;
19535;SDS011;9913;51.168;4.124;2023-02-15T11:57:19;40.03;;;22.17;;
19535;SDS011;9913;51.168;4.124;2023-02-15T11:59:55;37.57;;;22.23;;
19535;SDS011;9913;51.168;4.124;2023-02-15T12:02:33;38.07;;;22.80;;
19535;SDS011;9913;51.168;4.124;2023-02-15T12:05:09;41.37;;;22.67;;
19535;SDS011;9913;51.168;4.124;2023-02-15T12:07:46;39.50;;;22.70;;
19535;SDS011;9913;51.168;4.124;2023-02-15T12:10:20;40.23;;;22.67;;
19535;SDS011;9913;51.168;4.124;2023-02-15T12:13:08;40.43;;;22.00;;
19535;SDS011;9913;51.168;4.124;2023-02-15T12:15:39;40.63;;;22.50;;
19535;SDS011;9913;51.168;4.124;2023-02-15T12:18:17;37.07;;;22.13;;
19535;SDS011;9913;51.168;4.124;2023-02-15T12:20:48;39.77;;;22.20;;
19535;SDS011;9913;51.168;4.124;2023-02-15T12:23:17;39.53;;;22.57;;
19535;SDS011;9913;51.168;4.124;2023-02-15T12:25:51;37.70;;;22.23;;
19535;SDS011;9913;51.168;4.124;2023-02-15T12:28:24;38.80;;;22.20;;
19535;SDS011;9913;51.168;4.124;2023-02-15T12:30:56;40.00;;;23.13;;
19535;SDS011;9913;51.168;4.124;2023-02-15T12:33:27;38.93;;;21.80;;
19535;SDS011;9913;51.168;4.124;2023-02-15T12:35:59;40.37;;;22.43;;
19535;SDS011;9913;51.168;4.124;2023-02-15T12:38:32;36.37;;;22.03;;
19535;SDS011;9913;51.168;4.124;2023-02-15T12:41:03;38.57;;;22.47;;
19535;SDS011;9913;51.168;4.124;2023-02-15T12:43:49;44.30;;;24.43;;
19535;SDS011;9913;51.168;4.124;2023-02-15T12:46:31;38.43;;;22.80;;
19535;SDS011;9913;51.168;4.124;2023-02-15T12:49:06;36.27;;;22.13;;
19535;SDS011;9913;51.168;4.124;2023-02-15T12:51:47;43.53;;;23.07;;
19535;SDS011;9913;51.168;4.124;2023-02-15T12:54:28;39.40;;;22.80;;
19535;SDS011;9913;51.168;4.124;2023-02-15T12:56:58;38.67;;;22.20;;
19535;SDS011;9913;51.168;4.124;2023-02-15T12:59:42;37.00;;;23.10;;
19535;SDS011;9913;51.168;4.124;2023-02-15T13:02:21;41.83;;;23.53;;
19535;SDS011;9913;51.168;4.124;2023-02-15T13:04:53;42.40;;;24.37;;
19535;SDS011;9913;51.168;4.124;2023-02-15T13:07:23;39.80;;;23.83;;
19535;SDS011;9913;51.168;4.124;2023-02-15T13:10:03;44.47;;;24.77;;
19535;SDS011;9913;51.168;4.124;2023-02-15T13:12:32;40.57;;;24.47;;
19535;SDS011;9913;51.168;4.124;2023-02-15T13:15:02;42.03;;;23.67;;
19535;SDS011;9913;51.168;4.124;2023-02-15T13:17:32;40.90;;;23.00;;
19535;SDS011;9913;51.168;4.124;2023-02-15T13:20:02;42.40;;;25.27;;
19535;SDS011;9913;51.168;4.124;2023-02-15T13:22:43;37.70;;;23.63;;
19535;SDS011;9913;51.168;4.124;2023-02-15T13:25:16;42.90;;;24.00;;
19535;SDS011;9913;51.168;4.124;2023-02-15T13:27:48;40.27;;;24.17;;
19535;SDS011;9913;51.168;4.124;2023-02-15T13:30:24;40.23;;;24.47;;
19535;SDS011;9913;51.168;4.124;2023-02-15T13:32:59;39.63;;;23.73;;
19535;SDS011;9913;51.168;4.124;2023-02-15T13:35:33;41.03;;;25.33;;
19535;SDS011;9913;51.168;4.124;2023-02-15T13:38:15;42.43;;;23.83;;
19535;SDS011;9913;51.168;4.124;2023-02-15T13:40:58;39.87;;;24.87;;
19535;SDS011;9913;51.168;4.124;2023-02-15T13:43:34;41.50;;;24.30;;
19535;SDS011;9913;51.168;4.124;2023-02-15T13:46:17;39.53;;;23.60;;
19535;SDS011;9913;51.168;4.124;2023-02-15T13:48:54;42.33;;;25.67;;
19535;SDS011;9913;51.168;4.124;2023-02-15T13:51:31;42.80;;;26.03;;
19535;SDS011;9913;51.168;4.124;2023-02-15T13:54:23;44.67;;;25.43;;
19535;SDS011;9913;51.168;4.124;2023-02-15T13:57:13;39.80;;;23.70;;
19535;SDS011;9913;51.168;4.124;2023-02-15T14:00:02;36.40;;;24.03;;
19535;SDS011;9913;51.168;4.124;2023-02-15T14:05:44;41.00;;;24.40;;
19535;SDS011;9913;51.168;4.124;2023-02-15T14:08:29;44.00;;;23.63;;
19535;SDS011;9913;51.168;4.124;2023-02-15T14:11:08;40.67;;;24.23;;
19535;SDS011;9913;51.168;4.124;2023-02-15T14:14:01;40.30;;;24.37;;
19535;SDS011;9913;51.168;4.124;2023-02-15T14:16:45;40.83;;;24.00;;
19535;SDS011;9913;51.168;4.124;2023-02-15T14:19:43;45.50;;;25.27;;
19535;SDS011;9913;51.168;4.124;2023-02-15T14:22:18;42.20;;;24.13;;
19535;SDS011;9913;51.168;4.124;2023-02-15T14:24:59;40.03;;;23.93;;
19535;SDS011;9913;51.168;4.124;2023-02-15T14:27:43;41.53;;;23.43;;
19535;SDS011;9913;51.168;4.124;2023-02-15T14:30:21;42.80;;;23.77;;
19535;SDS011;9913;51.168;4.124;2023-02-15T14:32:53;42.70;;;24.23;;
19535;SDS011;9913;51.168;4.124;2023-02-15T14:35:27;35.80;;;23.97;;
19535;SDS011;9913;51.168;4.124;2023-02-15T14:37:58;41.63;;;25.03;;
19535;SDS011;9913;51.168;4.124;2023-02-15T14:40:36;43.10;;;23.97;;
19535;SDS011;9913;51.168;4.124;2023-02-15T14:43:36;36.40;;;23.50;;
19535;SDS011;9913;51.168;4.124;2023-02-15T14:46:14;42.37;;;24.10;;
19535;SDS011;9913;51.168;4.124;2023-02-15T14:48:49;41.83;;;23.57;;
19535;SDS011;9913;51.168;4.124;2023-02-15T14:57:27;41.13;;;23.60;;
19535;SDS011;9913;51.168;4.124;2023-02-15T15:00:03;43.33;;;23.50;;
19535;SDS011;9913;51.168;4.124;2023-02-15T15:03:18;41.40;;;23.03;;
19535;SDS011;9913;51.168;4.124;2023-02-15T15:05:51;40.27;;;22.30;;
19535;SDS011;9913;51.168;4.124;2023-02-15T15:08:22;43.60;;;22.80;;
19535;SDS011;9913;51.168;4.124;2023-02-15T15:10:57;37.27;;;22.87;;
19535;SDS011;9913;51.168;4.124;2023-02-15T15:14:10;42.73;;;22.87;;
19535;SDS011;9913;51.168;4.124;2023-02-15T15:17:00;40.70;;;22.30;;
19535;SDS011;9913;51.168;4.124;2023-02-15T15:22:43;39.93;;;21.80;;
19535;SDS011;9913;51.168;4.124;2023-02-15T15:25:12;41.37;;;22.10;;
19535;SDS011;9913;51.168;4.124;2023-02-15T15:31:14;32.93;;;20.07;;
19535;SDS011;9913;51.168;4.124;2023-02-15T15:37:02;33.27;;;19.83;;